sensor_id;sensor_type;location;lat;lon;timestamp;P1;durP1;ratioP1;P2;durP2;ratioP2
9264;SDS011;4669;49.594;10.958;2023-04-25T04:26:47;5.70;;;5.20;;
9264;SDS011;4669;49.594;10.958;2023-04-25T04:32:07;5.90;;;5.35;;
9264;SDS011;4669;49.594;10.958;2023-04-25T04:37:10;5.80;;;5.20;;
9264;SDS011;4669;49.594;10.958;2023-04-25T04:42:16;5.85;;;5.25;;
9264;SDS011;4669;49.594;10.958;2023-04-25T04:47:28;5.35;;;4.90;;
9264;SDS011;4669;49.594;10.958;2023-04-25T04:52:52;5.85;;;5.32;;
9264;SDS011;4669;49.594;10.958;2023-04-25T04:58:13;6.55;;;5.07;;
9264;SDS011;4669;49.594;10.958;2023-04-25T05:03:37;4.65;;;4.25;;
9264;SDS011;4669;49.594;10.958;2023-04-25T05:08:45;5.28;;;4.78;;
9264;SDS011;4669;49.594;10.958;2023-04-25T05:14:21;4.32;;;3.92;;
9264;SDS011;4669;49.594;10.958;2023-04-25T05:19:58;4.80;;;3.47;;
9264;SDS011;4669;49.594;10.958;2023-04-25T05:25:19;3.42;;;3.13;;
9264;SDS011;4669;49.594;10.958;2023-04-25T05:30:43;4.07;;;3.75;;
9264;SDS011;4669;49.594;10.958;2023-04-25T05:35:50;3.92;;;3.63;;
9264;SDS011;4669;49.594;10.958;2023-04-25T05:40:53;6.35;;;5.38;;
9264;SDS011;4669;49.594;10.958;2023-04-25T05:46:16;5.07;;;4.57;;
9264;SDS011;4669;49.594;10.958;2023-04-25T05:51:37;5.32;;;4.82;;
9264;SDS011;4669;49.594;10.958;2023-04-25T05:57:02;6.32;;;5.53;;
9264;SDS011;4669;49.594;10.958;2023-04-25T06:02:06;5.75;;;5.18;;
9264;SDS011;4669;49.594;10.958;2023-04-25T06:07:11;6.25;;;5.13;;
9264;SDS011;4669;49.594;10.958;2023-04-25T06:12:14;6.82;;;5.45;;
9264;SDS011;4669;49.594;10.958;2023-04-25T06:17:17;6.43;;;5.25;;
9264;SDS011;4669;49.594;10.958;2023-04-25T06:22:19;6.30;;;5.68;;
9264;SDS011;4669;49.594;10.958;2023-04-25T06:27:21;6.40;;;5.80;;
9264;SDS011;4669;49.594;10.958;2023-04-25T06:32:25;6.40;;;5.80;;
9264;SDS011;4669;49.594;10.958;2023-04-25T06:37:31;6.97;;;6.28;;
9264;SDS011;4669;49.594;10.958;2023-04-25T06:42:33;8.52;;;6.28;;
9264;SDS011;4669;49.594;10.958;2023-04-25T06:47:57;7.32;;;6.57;;
9264;SDS011;4669;49.594;10.958;2023-04-25T06:52:59;4.63;;;3.90;;
9264;SDS011;4669;49.594;10.958;2023-04-25T06:58:03;4.00;;;3.42;;
9264;SDS011;4669;49.594;10.958;2023-04-25T07:03:26;4.10;;;3.65;;
9264;SDS011;4669;49.594;10.958;2023-04-25T07:08:35;4.95;;;3.60;;
9264;SDS011;4669;49.594;10.958;2023-04-25T07:13:37;5.82;;;3.22;;
9264;SDS011;4669;49.594;10.958;2023-04-25T07:18:41;4.38;;;3.78;;
9264;SDS011;4669;49.594;10.958;2023-04-25T07:23:44;4.85;;;4.38;;
9264;SDS011;4669;49.594;10.958;2023-04-25T07:28:50;5.22;;;4.10;;
9264;SDS011;4669;49.594;10.958;2023-04-25T07:33:54;4.82;;;4.03;;
9264;SDS011;4669;49.594;10.958;2023-04-25T07:38:56;5.65;;;4.85;;
9264;SDS011;4669;49.594;10.958;2023-04-25T07:43:58;7.80;;;4.80;;
9264;SDS011;4669;49.594;10.958;2023-04-25T07:49:01;5.38;;;4.63;;
9264;SDS011;4669;49.594;10.958;2023-04-25T07:54:04;6.70;;;4.53;;
9264;SDS011;4669;49.594;10.958;2023-04-25T07:59:09;9.75;;;4.00;;
9264;SDS011;4669;49.594;10.958;2023-04-25T08:04:13;6.85;;;4.38;;
9264;SDS011;4669;49.594;10.958;2023-04-25T08:09:26;9.35;;;5.40;;
9264;SDS011;4669;49.594;10.958;2023-04-25T08:14:30;7.43;;;4.53;;
9264;SDS011;4669;49.594;10.958;2023-04-25T08:19:38;7.00;;;4.57;;
9264;SDS011;4669;49.594;10.958;2023-04-25T08:24:43;5.25;;;4.65;;
9264;SDS011;4669;49.594;10.958;2023-04-25T08:29:46;6.53;;;5.23;;
9264;SDS011;4669;49.594;10.958;2023-04-25T08:34:51;6.30;;;5.30;;
9264;SDS011;4669;49.594;10.958;2023-04-25T08:39:54;7.38;;;6.10;;
9264;SDS011;4669;49.594;10.958;2023-04-25T08:44:59;8.32;;;6.32;;
9264;SDS011;4669;49.594;10.958;2023-04-25T08:50:08;8.43;;;6.18;;
9264;SDS011;4669;49.594;10.958;2023-04-25T08:55:12;7.53;;;6.60;;
9264;SDS011;4669;49.594;10.958;2023-04-25T09:00:15;8.02;;;6.03;;
9264;SDS011;4669;49.594;10.958;2023-04-25T09:05:21;5.50;;;5.00;;
9264;SDS011;4669;49.594;10.958;2023-04-25T09:10:27;7.72;;;4.43;;
9264;SDS011;4669;49.594;10.958;2023-04-25T09:15:31;5.43;;;4.63;;
9264;SDS011;4669;49.594;10.958;2023-04-25T09:20:52;6.72;;;5.03;;
9264;SDS011;4669;49.594;10.958;2023-04-25T09:25:55;8.52;;;5.07;;
9264;SDS011;4669;49.594;10.958;2023-04-25T09:30:57;4.60;;;4.15;;
9264;SDS011;4669;49.594;10.958;2023-04-25T09:36:13;7.18;;;4.30;;
9264;SDS011;4669;49.594;10.958;2023-04-25T09:41:33;6.50;;;3.30;;
9264;SDS011;4669;49.594;10.958;2023-04-25T09:46:39;3.05;;;2.60;;
9264;SDS011;4669;49.594;10.958;2023-04-25T09:51:55;3.22;;;2.20;;
9264;SDS011;4669;49.594;10.958;2023-04-25T09:57:01;3.78;;;2.30;;
9264;SDS011;4669;49.594;10.958;2023-04-25T10:02:09;2.97;;;2.70;;
9264;SDS011;4669;49.594;10.958;2023-04-25T10:07:15;2.00;;;1.77;;
9264;SDS011;4669;49.594;10.958;2023-04-25T10:12:19;2.03;;;1.85;;
9264;SDS011;4669;49.594;10.958;2023-04-25T10:17:21;3.58;;;2.08;;
9264;SDS011;4669;49.594;10.958;2023-04-25T10:22:29;3.67;;;2.20;;
9264;SDS011;4669;49.594;10.958;2023-04-25T10:27:33;2.20;;;2.08;;
9264;SDS011;4669;49.594;10.958;2023-04-25T10:32:37;3.95;;;2.40;;
9264;SDS011;4669;49.594;10.958;2023-04-25T10:48:38;6.28;;;2.33;;
9264;SDS011;4669;49.594;10.958;2023-04-25T10:53:56;5.60;;;1.95;;
9264;SDS011;4669;49.594;10.958;2023-04-25T10:59:03;4.40;;;2.30;;
9264;SDS011;4669;49.594;10.958;2023-04-25T11:04:18;2.67;;;1.92;;
9264;SDS011;4669;49.594;10.958;2023-04-25T11:09:24;5.40;;;2.63;;
9264;SDS011;4669;49.594;10.958;2023-04-25T11:14:26;4.40;;;2.00;;
9264;SDS011;4669;49.594;10.958;2023-04-25T11:19:28;2.72;;;1.80;;
9264;SDS011;4669;49.594;10.958;2023-04-25T11:24:32;2.65;;;2.20;;
9264;SDS011;4669;49.594;10.958;2023-04-25T11:29:36;4.15;;;2.13;;
9264;SDS011;4669;49.594;10.958;2023-04-25T11:34:38;1.60;;;1.50;;
9264;SDS011;4669;49.594;10.958;2023-04-25T11:39:45;2.65;;;1.60;;
9264;SDS011;4669;49.594;10.958;2023-04-25T11:44:47;1.38;;;1.27;;
9264;SDS011;4669;49.594;10.958;2023-04-25T11:49:50;1.60;;;1.50;;
9264;SDS011;4669;49.594;10.958;2023-04-25T11:54:57;2.85;;;1.50;;
9264;SDS011;4669;49.594;10.958;2023-04-25T12:00:05;4.60;;;1.33;;
9264;SDS011;4669;49.594;10.958;2023-04-25T12:05:15;2.35;;;1.48;;
9264;SDS011;4669;49.594;10.958;2023-04-25T12:10:18;3.00;;;1.40;;
9264;SDS011;4669;49.594;10.958;2023-04-25T12:15:23;2.60;;;1.40;;
9264;SDS011;4669;49.594;10.958;2023-04-25T12:20:26;1.33;;;1.23;;
9264;SDS011;4669;49.594;10.958;2023-04-25T12:25:36;2.03;;;1.88;;
9264;SDS011;4669;49.594;10.958;2023-04-25T12:30:52;4.05;;;1.63;;
9264;SDS011;4669;49.594;10.958;2023-04-25T12:35:55;1.30;;;1.20;;
9264;SDS011;4669;49.594;10.958;2023-04-25T12:40:59;1.65;;;1.55;;
9264;SDS011;4669;49.594;10.958;2023-04-25T12:46:01;5.05;;;2.17;;
9264;SDS011;4669;49.594;10.958;2023-04-25T12:51:04;3.50;;;1.88;;
9264;SDS011;4669;49.594;10.958;2023-04-25T12:56:07;2.42;;;1.70;;
9264;SDS011;4669;49.594;10.958;2023-04-25T13:01:10;2.58;;;1.88;;
9264;SDS011;4669;49.594;10.958;2023-04-25T13:06:12;4.55;;;1.88;;
9264;SDS011;4669;49.594;10.958;2023-04-25T13:11:16;3.55;;;1.95;;
9264;SDS011;4669;49.594;10.958;2023-04-25T13:16:18;2.10;;;1.90;;
9264;SDS011;4669;49.594;10.958;2023-04-25T13:21:20;3.67;;;1.95;;
9264;SDS011;4669;49.594;10.958;2023-04-25T13:26:24;3.70;;;2.17;;
9264;SDS011;4669;49.594;10.958;2023-04-25T13:31:26;5.47;;;2.00;;
9264;SDS011;4669;49.594;10.958;2023-04-25T13:36:28;2.03;;;1.90;;
9264;SDS011;4669;49.594;10.958;2023-04-25T13:41:33;2.17;;;1.95;;
9264;SDS011;4669;49.594;10.958;2023-04-25T13:46:35;2.42;;;2.22;;
9264;SDS011;4669;49.594;10.958;2023-04-25T13:51:37;2.30;;;2.08;;
9264;SDS011;4669;49.594;10.958;2023-04-25T13:56:41;3.25;;;2.10;;
9264;SDS011;4669;49.594;10.958;2023-04-25T14:01:43;4.65;;;2.60;;
9264;SDS011;4669;49.594;10.958;2023-04-25T14:06:45;3.38;;;2.35;;
9264;SDS011;4669;49.594;10.958;2023-04-25T14:11:48;5.55;;;3.30;;
9264;SDS011;4669;49.594;10.958;2023-04-25T14:16:51;4.15;;;2.78;;
9264;SDS011;4669;49.594;10.958;2023-04-25T14:21:54;4.03;;;3.13;;
9264;SDS011;4669;49.594;10.958;2023-04-25T14:26:57;3.78;;;2.60;;
9264;SDS011;4669;49.594;10.958;2023-04-25T14:31:59;3.40;;;2.58;;
9264;SDS011;4669;49.594;10.958;2023-04-25T14:37:02;3.58;;;2.70;;
9264;SDS011;4669;49.594;10.958;2023-04-25T14:42:05;2.65;;;2.45;;
9264;SDS011;4669;49.594;10.958;2023-04-25T14:47:07;6.68;;;3.42;;
9264;SDS011;4669;49.594;10.958;2023-04-25T14:52:09;4.22;;;2.95;;
9264;SDS011;4669;49.594;10.958;2023-04-25T14:57:13;4.43;;;2.63;;
9264;SDS011;4669;49.594;10.958;2023-04-25T15:02:15;2.60;;;2.40;;
9264;SDS011;4669;49.594;10.958;2023-04-25T15:07:17;3.53;;;2.70;;
9264;SDS011;4669;49.594;10.958;2023-04-25T15:12:21;4.95;;;2.75;;
9264;SDS011;4669;49.594;10.958;2023-04-25T15:17:23;2.78;;;2.58;;
9264;SDS011;4669;49.594;10.958;2023-04-25T15:22:25;3.53;;;2.67;;
9264;SDS011;4669;49.594;10.958;2023-04-25T15:27:28;4.18;;;2.90;;
9264;SDS011;4669;49.594;10.958;2023-04-25T15:32:30;6.00;;;2.92;;
9264;SDS011;4669;49.594;10.958;2023-04-25T15:37:32;9.18;;;3.20;;
9264;SDS011;4669;49.594;10.958;2023-04-25T15:42:36;5.68;;;3.65;;
9264;SDS011;4669;49.594;10.958;2023-04-25T15:47:39;4.80;;;2.63;;
9264;SDS011;4669;49.594;10.958;2023-04-25T15:52:42;3.78;;;2.70;;
9264;SDS011;4669;49.594;10.958;2023-04-25T15:57:45;4.13;;;2.20;;
9264;SDS011;4669;49.594;10.958;2023-04-25T16:02:47;5.00;;;3.30;;
9264;SDS011;4669;49.594;10.958;2023-04-25T16:07:50;4.55;;;2.28;;
9264;SDS011;4669;49.594;10.958;2023-04-25T16:12:54;2.97;;;2.17;;
9264;SDS011;4669;49.594;10.958;2023-04-25T16:17:56;2.95;;;2.00;;
9264;SDS011;4669;49.594;10.958;2023-04-25T16:22:58;3.63;;;2.30;;
9264;SDS011;4669;49.594;10.958;2023-04-25T16:28:02;4.60;;;2.35;;
9264;SDS011;4669;49.594;10.958;2023-04-25T16:33:04;2.88;;;1.85;;
9264;SDS011;4669;49.594;10.958;2023-04-25T16:38:06;3.50;;;2.05;;
9264;SDS011;4669;49.594;10.958;2023-04-25T16:43:09;5.07;;;2.63;;
9264;SDS011;4669;49.594;10.958;2023-04-25T16:48:11;6.30;;;2.20;;
9264;SDS011;4669;49.594;10.958;2023-04-25T16:53:13;3.25;;;2.05;;
9264;SDS011;4669;49.594;10.958;2023-04-25T16:58:17;3.22;;;2.20;;
9264;SDS011;4669;49.594;10.958;2023-04-25T17:03:19;3.28;;;2.00;;
9264;SDS011;4669;49.594;10.958;2023-04-25T17:08:21;6.47;;;3.38;;
9264;SDS011;4669;49.594;10.958;2023-04-25T17:13:25;6.13;;;2.20;;
9264;SDS011;4669;49.594;10.958;2023-04-25T17:18:27;4.43;;;2.55;;
9264;SDS011;4669;49.594;10.958;2023-04-25T17:23:29;9.05;;;2.72;;
9264;SDS011;4669;49.594;10.958;2023-04-25T17:28:32;8.32;;;2.97;;
9264;SDS011;4669;49.594;10.958;2023-04-25T17:33:34;3.95;;;2.50;;
9264;SDS011;4669;49.594;10.958;2023-04-25T17:38:37;6.70;;;2.67;;
9264;SDS011;4669;49.594;10.958;2023-04-25T17:43:40;3.30;;;2.25;;
9264;SDS011;4669;49.594;10.958;2023-04-25T17:48:42;6.65;;;3.08;;
9264;SDS011;4669;49.594;10.958;2023-04-25T17:53:44;9.98;;;3.53;;
9264;SDS011;4669;49.594;10.958;2023-04-25T17:58:48;7.82;;;3.88;;
9264;SDS011;4669;49.594;10.958;2023-04-25T18:03:50;10.57;;;4.40;;
9264;SDS011;4669;49.594;10.958;2023-04-25T18:08:52;11.43;;;4.70;;
9264;SDS011;4669;49.594;10.958;2023-04-25T18:13:57;8.80;;;3.95;;
9264;SDS011;4669;49.594;10.958;2023-04-25T18:19:00;4.63;;;2.63;;
9264;SDS011;4669;49.594;10.958;2023-04-25T18:24:05;7.38;;;3.72;;
9264;SDS011;4669;49.594;10.958;2023-04-25T18:29:10;9.77;;;3.53;;
9264;SDS011;4669;49.594;10.958;2023-04-25T18:34:13;7.32;;;2.95;;
9264;SDS011;4669;49.594;10.958;2023-04-25T18:39:15;15.77;;;6.85;;
9264;SDS011;4669;49.594;10.958;2023-04-25T18:44:19;9.45;;;5.05;;
9264;SDS011;4669;49.594;10.958;2023-04-25T18:49:21;9.57;;;4.53;;
9264;SDS011;4669;49.594;10.958;2023-04-25T18:54:23;5.00;;;3.55;;
9264;SDS011;4669;49.594;10.958;2023-04-25T18:59:26;6.78;;;3.65;;
9264;SDS011;4669;49.594;10.958;2023-04-25T19:04:28;7.82;;;3.42;;
9264;SDS011;4669;49.594;10.958;2023-04-25T19:09:31;9.10;;;3.50;;
9264;SDS011;4669;49.594;10.958;2023-04-25T19:14:34;6.05;;;3.10;;
9264;SDS011;4669;49.594;10.958;2023-04-25T19:19:36;6.97;;;4.78;;
9264;SDS011;4669;49.594;10.958;2023-04-25T19:24:39;8.82;;;3.83;;
9264;SDS011;4669;49.594;10.958;2023-04-25T19:29:42;6.75;;;3.28;;
9264;SDS011;4669;49.594;10.958;2023-04-25T19:34:47;7.45;;;3.35;;
9264;SDS011;4669;49.594;10.958;2023-04-25T19:39:49;6.15;;;3.17;;
9264;SDS011;4669;49.594;10.958;2023-04-25T19:44:52;4.78;;;2.88;;
9264;SDS011;4669;49.594;10.958;2023-04-25T19:49:55;8.02;;;2.72;;
9264;SDS011;4669;49.594;10.958;2023-04-25T19:54:57;7.28;;;2.72;;
9264;SDS011;4669;49.594;10.958;2023-04-25T20:00:04;5.68;;;2.72;;
9264;SDS011;4669;49.594;10.958;2023-04-25T20:05:13;8.48;;;2.63;;
9264;SDS011;4669;49.594;10.958;2023-04-25T20:10:16;10.13;;;3.17;;
9264;SDS011;4669;49.594;10.958;2023-04-25T20:15:20;4.45;;;2.55;;
9264;SDS011;4669;49.594;10.958;2023-04-25T20:20:22;7.97;;;2.88;;
9264;SDS011;4669;49.594;10.958;2023-04-25T20:25:24;6.07;;;2.90;;
9264;SDS011;4669;49.594;10.958;2023-04-25T20:30:28;9.07;;;2.70;;
9264;SDS011;4669;49.594;10.958;2023-04-25T20:35:30;7.32;;;3.03;;
9264;SDS011;4669;49.594;10.958;2023-04-25T20:40:32;5.25;;;2.90;;
9264;SDS011;4669;49.594;10.958;2023-04-25T20:45:35;7.45;;;3.05;;
9264;SDS011;4669;49.594;10.958;2023-04-25T20:50:37;6.45;;;3.08;;
9264;SDS011;4669;49.594;10.958;2023-04-25T20:55:39;7.50;;;3.08;;
9264;SDS011;4669;49.594;10.958;2023-04-25T21:00:43;8.02;;;2.97;;
9264;SDS011;4669;49.594;10.958;2023-04-25T21:05:46;10.00;;;2.95;;
9264;SDS011;4669;49.594;10.958;2023-04-25T21:10:48;7.10;;;3.22;;
9264;SDS011;4669;49.594;10.958;2023-04-25T21:15:52;6.38;;;2.72;;
9264;SDS011;4669;49.594;10.958;2023-04-25T21:20:54;7.60;;;2.92;;
9264;SDS011;4669;49.594;10.958;2023-04-25T21:25:56;8.45;;;3.40;;
9264;SDS011;4669;49.594;10.958;2023-04-25T21:30:59;10.77;;;3.42;;
9264;SDS011;4669;49.594;10.958;2023-04-25T21:36:01;7.35;;;3.58;;
9264;SDS011;4669;49.594;10.958;2023-04-25T21:41:03;7.20;;;2.90;;
9264;SDS011;4669;49.594;10.958;2023-04-25T21:46:07;5.18;;;2.83;;
9264;SDS011;4669;49.594;10.958;2023-04-25T21:51:09;6.97;;;2.88;;
9264;SDS011;4669;49.594;10.958;2023-04-25T21:56:11;5.35;;;2.75;;
